Time,TemperatureF,DewpointF,PressureIn,WindDirection,WindDirectionDegrees,WindSpeedMPH,WindSpeedGustMPH,Humidity,HourlyPrecipIn,Conditions,Clouds,dailyrainin,SoftwareType,DateUTC
2013-02-10 00:05:00,30.3,16.0,29.81,South,184,0.0,-999.0,55,-99.99,,,0.00,weatherlink.com 1.10,2013-02-10 07:05:00,
2013-02-10 00:20:00,30.1,16.0,29.81,NW,322,2.0,-999.0,55,-99.99,,,0.00,weatherlink.com 1.10,2013-02-10 07:20:00,
2013-02-10 00:35:00,30.0,16.0,29.81,SW,236,0.0,-999.0,56,-99.99,,,0.00,weatherlink.com 1.10,2013-02-10 07:35:00,
2013-02-10 00:49:00,29.7,16.0,29.81,SSW,199,0.0,-999.0,56,-99.99,,,0.00,weatherlink.com 1.10,2013-02-10 07:49:00,
2013-02-10 01:04:00,29.3,15.0,29.82,SSW,199,0.0,-999.0,56,-99.99,,,0.00,weatherlink.com 1.10,2013-02-10 08:04:00,
2013-02-10 01:20:00,28.2,15.0,29.83,SSW,199,0.0,-999.0,57,-99.99,,,0.00,weatherlink.com 1.10,2013-02-10 08:20:00,
2013-02-10 01:35:00,27.0,15.0,29.84,SSW,199,0.0,-999.0,61,-99.99,,,0.00,weatherlink.com 1.10,2013-02-10 08:35:00,
2013-02-10 01:50:00,27.5,14.0,29.84,SSW,199,0.0,-999.0,56,-99.99,,,0.00,weatherlink.com 1.10,2013-02-10 08:50:00,
2013-02-10 02:05:00,27.8,13.0,29.84,SSW,199,0.0,-999.0,55,-99.99,,,0.00,weatherlink.com 1.10,2013-02-10 09:05:00,
2013-02-10 02:20:00,27.6,13.0,29.83,SSW,199,0.0,-999.0,54,-99.99,,,0.00,weatherlink.com 1.10,2013-02-10 09:20:00,
2013-02-10 02:35:00,26.7,13.0,29.84,SSW,199,0.0,-999.0,57,-99.99,,,0.00,weatherlink.com 1.10,2013-02-10 09:35:00,
2013-02-10 02:50:00,26.3,13.0,29.85,SSW,199,0.0,-999.0,58,-99.99,,,0.00,weatherlink.com 1.10,2013-02-10 09:50:00,
2013-02-10 03:05:00,25.8,13.0,29.85,SSW,199,0.0,-999.0,58,-99.99,,,0.00,weatherlink.com 1.10,2013-02-10 10:05:00,
2013-02-10 03:20:00,25.8,13.0,29.86,SSW,199,0.0,-999.0,58,-99.99,,,0.00,weatherlink.com 1.10,2013-02-10 10:20:00,
2013-02-10 03:35:00,25.6,13.0,29.87,SSW,199,0.0,-999.0,60,-99.99,,,0.00,weatherlink.com 1.10,2013-02-10 10:35:00,
2013-02-10 03:50:00,25.3,13.0,29.87,SSW,199,0.0,-999.0,60,-99.99,,,0.00,weatherlink.com 1.10,2013-02-10 10:50:00,
2013-02-10 04:05:00,25.0,13.0,29.87,SSW,199,0.0,-999.0,61,-99.99,,,0.00,weatherlink.com 1.10,2013-02-10 11:05:00,
2013-02-10 04:20:00,24.7,14.0,29.89,SSW,199,0.0,-999.0,63,-99.99,,,0.00,weatherlink.com 1.10,2013-02-10 11:20:00,
2013-02-10 04:35:00,24.4,13.0,29.89,SSW,199,0.0,-999.0,63,-99.99,,,0.00,weatherlink.com 1.10,2013-02-10 11:35:00,
2013-02-10 04:50:00,23.8,13.0,29.89,SSW,199,0.0,-999.0,63,-99.99,,,0.00,weatherlink.com 1.10,2013-02-10 11:50:00,
2013-02-10 05:05:00,23.0,12.0,29.90,SSW,199,0.0,-999.0,63,-99.99,,,0.00,weatherlink.com 1.10,2013-02-10 12:05:00,
2013-02-10 05:20:00,22.2,12.0,29.93,SSW,199,0.0,-999.0,64,-99.99,,,0.00,weatherlink.com 1.10,2013-02-10 12:20:00,
2013-02-10 05:35:00,21.8,12.0,29.93,SSW,199,0.0,-999.0,65,-99.99,,,0.00,weatherlink.com 1.10,2013-02-10 12:35:00,
2013-02-10 05:50:00,21.1,11.0,29.94,SSW,199,0.0,-999.0,66,-99.99,,,0.00,weatherlink.com 1.10,2013-02-10 12:50:00,
2013-02-10 06:05:00,20.5,11.0,29.94,SSW,199,0.0,-999.0,66,-99.99,,,0.00,weatherlink.com 1.10,2013-02-10 13:05:00,
2013-02-10 06:20:00,20.2,11.0,29.97,SSW,199,0.0,-999.0,67,-99.99,,,0.00,weatherlink.com 1.10,2013-02-10 13:20:00,
2013-02-10 06:35:00,19.9,11.0,29.98,SSW,199,0.0,-999.0,68,-99.99,,,0.00,weatherlink.com 1.10,2013-02-10 13:35:00,
2013-02-10 06:50:00,19.5,11.0,29.99,SSW,199,0.0,-999.0,69,-99.99,,,0.00,weatherlink.com 1.10,2013-02-10 13:50:00,
2013-02-10 07:05:00,19.5,12.0,29.99,SSW,199,0.0,-999.0,71,-99.99,,,0.00,weatherlink.com 1.10,2013-02-10 14:05:00,
2013-02-10 07:20:00,19.4,11.0,30.00,SSW,199,0.0,-999.0,70,-99.99,,,0.00,weatherlink.com 1.10,2013-02-10 14:20:00,
2013-02-10 07:36:00,19.2,11.0,30.01,SSW,199,0.0,-999.0,71,-99.99,,,0.00,weatherlink.com 1.10,2013-02-10 14:36:00,
2013-02-10 07:50:00,20.2,13.0,30.00,SSW,199,0.0,-999.0,73,-99.99,,,0.00,weatherlink.com 1.10,2013-02-10 14:50:00,
2013-02-10 08:05:00,22.1,15.0,30.00,SSW,199,0.0,-999.0,73,-99.99,,,0.00,weatherlink.com 1.10,2013-02-10 15:05:00,
2013-02-10 08:20:00,26.1,16.0,29.99,SSW,199,0.0,-999.0,66,-99.99,,,0.00,weatherlink.com 1.10,2013-02-10 15:20:00,
2013-02-10 08:35:00,30.3,17.0,29.98,South,182,0.0,-999.0,57,-99.99,,,0.00,weatherlink.com 1.10,2013-02-10 15:35:00,
2013-02-10 08:50:00,32.8,16.0,29.96,SSE,155,1.0,-999.0,50,-99.99,,,0.00,weatherlink.com 1.10,2013-02-10 15:50:00,
2013-02-10 09:05:00,34.6,15.0,29.95,South,175,0.0,-999.0,45,-99.99,,,0.00,weatherlink.com 1.10,2013-02-10 16:05:00,
2013-02-10 09:20:00,35.5,15.0,29.95,South,169,0.0,-999.0,44,-99.99,,,0.00,weatherlink.com 1.10,2013-02-10 16:20:00,
2013-02-10 09:35:00,36.0,15.0,29.94,SSW,198,0.0,-999.0,42,-99.99,,,0.00,weatherlink.com 1.10,2013-02-10 16:35:00,
2013-02-10 09:50:00,37.6,16.0,29.94,South,169,2.0,-999.0,41,-99.99,,,0.00,weatherlink.com 1.10,2013-02-10 16:50:00,
2013-02-10 10:06:00,38.2,14.0,29.93,South,179,2.0,-999.0,38,-99.99,,,0.00,weatherlink.com 1.10,2013-02-10 17:06:00,
2013-02-10 10:21:00,39.5,14.0,29.93,SSW,192,6.0,-999.0,35,-99.99,,,0.00,weatherlink.com 1.10,2013-02-10 17:21:00,
2013-02-10 10:36:00,39.9,13.0,29.93,SSW,208,1.0,-999.0,34,-99.99,,,0.00,weatherlink.com 1.10,2013-02-10 17:36:00,
2013-02-10 10:51:00,40.8,14.0,29.92,SW,216,0.0,-999.0,33,-99.99,,,0.00,weatherlink.com 1.10,2013-02-10 17:51:00,
2013-02-10 11:06:00,40.6,15.0,29.93,South,189,0.0,-999.0,36,-99.99,,,0.00,weatherlink.com 1.10,2013-02-10 18:06:00,
2013-02-10 11:21:00,41.1,15.0,29.92,SSW,196,1.0,-999.0,34,-99.99,,,0.00,weatherlink.com 1.10,2013-02-10 18:21:00,
2013-02-10 11:36:00,42.5,12.0,29.90,SW,223,0.0,-999.0,29,-99.99,,,0.00,weatherlink.com 1.10,2013-02-10 18:36:00,
2013-02-10 11:51:00,42.1,12.0,29.90,SE,134,1.0,-999.0,29,-99.99,,,0.00,weatherlink.com 1.10,2013-02-10 18:51:00,
2013-02-10 12:06:00,42.5,13.0,29.90,SW,222,1.0,-999.0,30,-99.99,,,0.00,weatherlink.com 1.10,2013-02-10 19:06:00,
2013-02-10 12:21:00,42.5,12.0,29.89,NW,322,2.0,-999.0,29,-99.99,,,0.00,weatherlink.com 1.10,2013-02-10 19:21:00,
2013-02-10 12:36:00,42.8,13.0,29.88,South,186,0.0,-999.0,30,-99.99,,,0.00,weatherlink.com 1.10,2013-02-10 19:36:00,
2013-02-10 12:51:00,42.9,12.0,29.89,SSW,195,3.0,-999.0,28,-99.99,,,0.00,weatherlink.com 1.10,2013-02-10 19:51:00,
2013-02-10 13:06:00,44.2,13.0,29.87,SW,224,0.0,-999.0,28,-99.99,,,0.00,weatherlink.com 1.10,2013-02-10 20:06:00,
2013-02-10 13:21:00,43.6,11.0,29.86,South,179,5.0,-999.0,27,-99.99,,,0.00,weatherlink.com 1.10,2013-02-10 20:21:00,
2013-02-10 13:36:00,43.5,11.0,29.85,SW,230,0.0,-999.0,27,-99.99,,,0.00,weatherlink.com 1.10,2013-02-10 20:36:00,
2013-02-10 13:51:00,44.3,11.0,29.86,NW,315,3.0,-999.0,26,-99.99,,,0.00,weatherlink.com 1.10,2013-02-10 20:51:00,
2013-02-10 14:06:00,45.1,10.0,29.84,South,184,3.0,-999.0,24,-99.99,,,0.00,weatherlink.com 1.10,2013-02-10 21:06:00,
2013-02-10 14:21:00,46.4,9.0,29.85,SSE,157,0.0,-999.0,22,-99.99,,,0.00,weatherlink.com 1.10,2013-02-10 21:21:00,
2013-02-10 14:36:00,44.6,9.0,29.84,WNW,289,2.0,-999.0,23,-99.99,,,0.00,weatherlink.com 1.10,2013-02-10 21:36:00,
2013-02-10 14:51:00,44.3,8.0,29.84,SSW,203,3.0,-999.0,23,-99.99,,,0.00,weatherlink.com 1.10,2013-02-10 21:51:00,
2013-02-10 15:06:00,44.5,8.0,29.84,South,181,1.0,-999.0,22,-99.99,,,0.00,weatherlink.com 1.10,2013-02-10 22:06:00,
2013-02-10 15:21:00,45.8,8.0,29.84,WSW,248,0.0,-999.0,21,-99.99,,,0.00,weatherlink.com 1.10,2013-02-10 22:21:00,
2013-02-10 15:36:00,46.1,8.0,29.84,SW,229,2.0,-999.0,21,-99.99,,,0.00,weatherlink.com 1.10,2013-02-10 22:36:00,
2013-02-10 15:51:00,45.2,8.0,29.85,South,178,1.0,-999.0,22,-99.99,,,0.00,weatherlink.com 1.10,2013-02-10 22:51:00,
2013-02-10 16:06:00,45.2,8.0,29.85,SSW,203,0.0,-999.0,22,-99.99,,,0.00,weatherlink.com 1.10,2013-02-10 23:06:00,
2013-02-10 16:21:00,44.9,8.0,29.87,SSE,157,3.0,-999.0,22,-99.99,,,0.00,weatherlink.com 1.10,2013-02-10 23:21:00,
2013-02-10 16:36:00,43.8,7.0,29.86,SSE,168,2.0,-999.0,22,-99.99,,,0.00,weatherlink.com 1.10,2013-02-10 23:36:00,
2013-02-10 16:51:00,42.6,6.0,29.88,SSE,152,0.0,-999.0,22,-99.99,,,0.00,weatherlink.com 1.10,2013-02-10 23:51:00,
2013-02-10 17:06:00,42.2,7.0,29.89,WSW,253,0.0,-999.0,23,-99.99,,,0.00,weatherlink.com 1.10,2013-02-11 00:06:00,
2013-02-10 17:21:00,41.6,7.0,29.91,WSW,240,0.0,-999.0,24,-99.99,,,0.00,weatherlink.com 1.10,2013-02-11 00:21:00,
2013-02-10 17:36:00,40.9,7.0,29.91,SSW,200,0.0,-999.0,25,-99.99,,,0.00,weatherlink.com 1.10,2013-02-11 00:36:00,
2013-02-10 17:51:00,40.1,8.0,29.91,SSW,200,0.0,-999.0,26,-99.99,,,0.00,weatherlink.com 1.10,2013-02-11 00:51:00,
2013-02-10 18:09:00,39.2,8.0,29.92,SSW,202,0.0,-999.0,28,-99.99,,,0.00,weatherlink.com 1.10,2013-02-11 01:09:00,
2013-02-10 18:21:00,38.5,8.0,29.94,SSW,200,0.0,-999.0,28,-99.99,,,0.00,weatherlink.com 1.10,2013-02-11 01:21:00,
2013-02-10 18:36:00,37.8,8.0,29.95,SSW,200,0.0,-999.0,29,-99.99,,,0.00,weatherlink.com 1.10,2013-02-11 01:36:00,
2013-02-10 18:51:00,36.6,9.0,29.96,SSW,202,0.0,-999.0,32,-99.99,,,0.00,weatherlink.com 1.10,2013-02-11 01:51:00,
2013-02-10 19:06:00,35.6,10.0,29.98,SSW,202,0.0,-999.0,35,-99.99,,,0.00,weatherlink.com 1.10,2013-02-11 02:06:00,
2013-02-10 19:21:00,34.4,10.0,29.97,SSW,202,0.0,-999.0,37,-99.99,,,0.00,weatherlink.com 1.10,2013-02-11 02:21:00,
2013-02-10 19:36:00,33.5,10.0,29.98,SSW,202,0.0,-999.0,38,-99.99,,,0.00,weatherlink.com 1.10,2013-02-11 02:36:00,
2013-02-10 19:52:00,32.7,11.0,29.98,SSW,202,0.0,-999.0,41,-99.99,,,0.00,weatherlink.com 1.10,2013-02-11 02:52:00,
2013-02-10 20:07:00,31.9,11.0,30.00,SSW,202,0.0,-999.0,41,-99.99,,,0.00,weatherlink.com 1.10,2013-02-11 03:07:00,
2013-02-10 20:22:00,31.0,10.0,29.92,SSW,202,0.0,-999.0,42,-99.99,,,0.00,weatherlink.com 1.10,2013-02-11 03:22:00,
2013-02-10 20:37:00,30.3,12.0,29.93,SSW,202,0.0,-999.0,46,-99.99,,,0.00,weatherlink.com 1.10,2013-02-11 03:37:00,
2013-02-10 20:51:00,29.5,14.0,29.94,SSW,202,0.0,-999.0,52,-99.99,,,0.00,weatherlink.com 1.10,2013-02-11 03:51:00,
2013-02-10 21:06:00,28.8,13.0,29.95,SSW,202,0.0,-999.0,51,-99.99,,,0.00,weatherlink.com 1.10,2013-02-11 04:06:00,
2013-02-10 21:22:00,28.1,12.0,29.93,SSW,202,0.0,-999.0,50,-99.99,,,0.00,weatherlink.com 1.10,2013-02-11 04:22:00,
2013-02-10 21:37:00,27.5,11.0,29.94,SSW,202,0.0,-999.0,51,-99.99,,,0.00,weatherlink.com 1.10,2013-02-11 04:37:00,
2013-02-10 21:52:00,27.0,11.0,29.96,SSW,202,0.0,-999.0,50,-99.99,,,0.00,weatherlink.com 1.10,2013-02-11 04:52:00,
2013-02-10 22:06:00,27.2,12.0,29.97,SSW,202,0.0,-999.0,52,-99.99,,,0.00,weatherlink.com 1.10,2013-02-11 05:06:00,
2013-02-10 22:36:00,31.3,20.0,29.94,NW,318,0.0,-999.0,64,-99.99,,,0.00,weatherlink.com 1.10,2013-02-11 05:36:00,
2013-02-10 22:52:00,31.6,21.0,29.93,NNW,333,1.0,-999.0,65,-99.99,,,0.00,weatherlink.com 1.10,2013-02-11 05:52:00,
2013-02-10 23:07:00,31.0,20.0,29.93,NNW,333,0.0,-999.0,64,-99.99,,,0.00,weatherlink.com 1.10,2013-02-11 06:07:00,
2013-02-10 23:21:00,30.1,20.0,29.93,NNW,333,0.0,-999.0,66,-99.99,,,0.00,weatherlink.com 1.10,2013-02-11 06:21:00,
2013-02-10 23:36:00,29.1,19.0,29.93,NNW,333,0.0,-999.0,67,-99.99,,,0.00,weatherlink.com 1.10,2013-02-11 06:36:00,
2013-02-10 23:52:00,28.5,19.0,29.95,NNW,333,0.0,-999.0,68,-99.99,,,0.00,weatherlink.com 1.10,2013-02-11 06:52:00,